sensor_id;sensor_type;location;lat;lon;timestamp;P1;durP1;ratioP1;P2;durP2;ratioP2
25213;SDS011;13160;51.834;4.706;2023-02-13T00:01:31;39.30;;;22.60;;
25213;SDS011;13160;51.834;4.706;2023-02-13T00:04:00;42.83;;;23.15;;
25213;SDS011;13160;51.834;4.706;2023-02-13T00:06:30;42.92;;;22.95;;
25213;SDS011;13160;51.834;4.706;2023-02-13T00:08:58;42.33;;;22.40;;
25213;SDS011;13160;51.834;4.706;2023-02-13T00:11:27;38.38;;;22.58;;
25213;SDS011;13160;51.834;4.706;2023-02-13T00:13:58;40.15;;;22.50;;
25213;SDS011;13160;51.834;4.706;2023-02-13T00:16:26;40.42;;;22.23;;
25213;SDS011;13160;51.834;4.706;2023-02-13T00:18:55;41.72;;;23.38;;
25213;SDS011;13160;51.834;4.706;2023-02-13T00:21:23;42.80;;;23.70;;
25213;SDS011;13160;51.834;4.706;2023-02-13T00:23:52;42.72;;;23.48;;
25213;SDS011;13160;51.834;4.706;2023-02-13T00:26:23;41.17;;;23.23;;
25213;SDS011;13160;51.834;4.706;2023-02-13T00:28:51;43.58;;;23.25;;
25213;SDS011;13160;51.834;4.706;2023-02-13T00:31:23;46.45;;;24.65;;
25213;SDS011;13160;51.834;4.706;2023-02-13T00:33:52;38.22;;;22.63;;
25213;SDS011;13160;51.834;4.706;2023-02-13T00:36:20;45.78;;;24.40;;
25213;SDS011;13160;51.834;4.706;2023-02-13T00:38:49;41.90;;;23.95;;
25213;SDS011;13160;51.834;4.706;2023-02-13T00:41:18;43.30;;;23.25;;
25213;SDS011;13160;51.834;4.706;2023-02-13T00:43:47;43.47;;;24.70;;
25213;SDS011;13160;51.834;4.706;2023-02-13T00:46:16;44.97;;;23.88;;
25213;SDS011;13160;51.834;4.706;2023-02-13T00:48:46;43.45;;;24.35;;
25213;SDS011;13160;51.834;4.706;2023-02-13T00:51:17;42.60;;;24.63;;
25213;SDS011;13160;51.834;4.706;2023-02-13T00:53:45;41.90;;;23.02;;
25213;SDS011;13160;51.834;4.706;2023-02-13T00:56:13;42.33;;;22.63;;
25213;SDS011;13160;51.834;4.706;2023-02-13T00:58:42;41.15;;;22.67;;
25213;SDS011;13160;51.834;4.706;2023-02-13T01:01:10;46.10;;;24.23;;
25213;SDS011;13160;51.834;4.706;2023-02-13T01:03:39;40.78;;;23.23;;
25213;SDS011;13160;51.834;4.706;2023-02-13T01:06:10;41.85;;;23.13;;
25213;SDS011;13160;51.834;4.706;2023-02-13T01:08:38;42.92;;;23.55;;
25213;SDS011;13160;51.834;4.706;2023-02-13T01:11:07;43.20;;;24.40;;
25213;SDS011;13160;51.834;4.706;2023-02-13T01:13:36;43.85;;;23.58;;
25213;SDS011;13160;51.834;4.706;2023-02-13T01:16:05;37.40;;;23.13;;
25213;SDS011;13160;51.834;4.706;2023-02-13T01:18:34;41.40;;;22.35;;
25213;SDS011;13160;51.834;4.706;2023-02-13T01:21:03;41.60;;;23.80;;
25213;SDS011;13160;51.834;4.706;2023-02-13T01:23:37;48.88;;;24.70;;
25213;SDS011;13160;51.834;4.706;2023-02-13T01:26:09;40.38;;;22.00;;
25213;SDS011;13160;51.834;4.706;2023-02-13T01:28:44;43.88;;;22.88;;
25213;SDS011;13160;51.834;4.706;2023-02-13T01:31:12;43.97;;;23.45;;
25213;SDS011;13160;51.834;4.706;2023-02-13T01:33:41;43.22;;;22.77;;
25213;SDS011;13160;51.834;4.706;2023-02-13T01:36:10;44.22;;;23.67;;
25213;SDS011;13160;51.834;4.706;2023-02-13T01:38:41;43.85;;;23.63;;
25213;SDS011;13160;51.834;4.706;2023-02-13T01:41:10;43.47;;;23.35;;
25213;SDS011;13160;51.834;4.706;2023-02-13T01:43:46;40.08;;;22.92;;
25213;SDS011;13160;51.834;4.706;2023-02-13T01:46:19;39.35;;;21.33;;
25213;SDS011;13160;51.834;4.706;2023-02-13T01:48:53;40.72;;;22.15;;
25213;SDS011;13160;51.834;4.706;2023-02-13T01:51:28;38.58;;;21.45;;
25213;SDS011;13160;51.834;4.706;2023-02-13T01:54:03;39.22;;;20.80;;
25213;SDS011;13160;51.834;4.706;2023-02-13T01:56:39;45.95;;;23.08;;
25213;SDS011;13160;51.834;4.706;2023-02-13T01:59:11;43.65;;;22.73;;
25213;SDS011;13160;51.834;4.706;2023-02-13T02:01:42;41.92;;;21.65;;
25213;SDS011;13160;51.834;4.706;2023-02-13T02:04:12;39.80;;;20.63;;
25213;SDS011;13160;51.834;4.706;2023-02-13T02:06:48;38.60;;;21.33;;
25213;SDS011;13160;51.834;4.706;2023-02-13T02:09:24;42.20;;;23.42;;
25213;SDS011;13160;51.834;4.706;2023-02-13T02:11:58;46.67;;;22.60;;
25213;SDS011;13160;51.834;4.706;2023-02-13T02:14:31;41.83;;;21.60;;
25213;SDS011;13160;51.834;4.706;2023-02-13T02:17:00;38.75;;;20.05;;
25213;SDS011;13160;51.834;4.706;2023-02-13T02:19:34;39.10;;;20.60;;
25213;SDS011;13160;51.834;4.706;2023-02-13T02:22:29;40.35;;;22.48;;
25213;SDS011;13160;51.834;4.706;2023-02-13T02:35:41;41.47;;;21.15;;
25213;SDS011;13160;51.834;4.706;2023-02-13T02:38:17;40.63;;;22.08;;
25213;SDS011;13160;51.834;4.706;2023-02-13T02:41:05;39.50;;;21.80;;
25213;SDS011;13160;51.834;4.706;2023-02-13T02:44:02;37.33;;;19.85;;
25213;SDS011;13160;51.834;4.706;2023-02-13T02:46:48;40.47;;;21.58;;
25213;SDS011;13160;51.834;4.706;2023-02-13T02:49:50;42.72;;;21.98;;
25213;SDS011;13160;51.834;4.706;2023-02-13T02:52:34;40.33;;;21.63;;
25213;SDS011;13160;51.834;4.706;2023-02-13T02:55:15;41.40;;;18.88;;
25213;SDS011;13160;51.834;4.706;2023-02-13T02:58:01;42.97;;;21.80;;
25213;SDS011;13160;51.834;4.706;2023-02-13T03:00:53;39.92;;;20.00;;
25213;SDS011;13160;51.834;4.706;2023-02-13T03:03:41;40.00;;;20.88;;
25213;SDS011;13160;51.834;4.706;2023-02-13T03:06:31;42.13;;;20.83;;
25213;SDS011;13160;51.834;4.706;2023-02-13T03:09:05;41.33;;;21.05;;
25213;SDS011;13160;51.834;4.706;2023-02-13T03:11:57;40.58;;;21.10;;
25213;SDS011;13160;51.834;4.706;2023-02-13T03:14:43;42.10;;;20.67;;
25213;SDS011;13160;51.834;4.706;2023-02-13T03:17:15;40.33;;;20.13;;
25213;SDS011;13160;51.834;4.706;2023-02-13T03:20:08;41.55;;;21.85;;
25213;SDS011;13160;51.834;4.706;2023-02-13T03:23:20;40.40;;;20.55;;
25213;SDS011;13160;51.834;4.706;2023-02-13T03:26:16;45.85;;;22.00;;
25213;SDS011;13160;51.834;4.706;2023-02-13T03:29:12;44.70;;;22.55;;
25213;SDS011;13160;51.834;4.706;2023-02-13T03:32:09;39.60;;;20.35;;
25213;SDS011;13160;51.834;4.706;2023-02-13T03:34:47;43.35;;;22.38;;
25213;SDS011;13160;51.834;4.706;2023-02-13T03:37:42;41.80;;;21.17;;
25213;SDS011;13160;51.834;4.706;2023-02-13T03:40:25;44.90;;;21.80;;
25213;SDS011;13160;51.834;4.706;2023-02-13T03:43:02;42.95;;;21.63;;
25213;SDS011;13160;51.834;4.706;2023-02-13T03:45:37;38.45;;;21.30;;
25213;SDS011;13160;51.834;4.706;2023-02-13T03:48:23;43.60;;;21.95;;
25213;SDS011;13160;51.834;4.706;2023-02-13T03:51:13;45.17;;;22.23;;
25213;SDS011;13160;51.834;4.706;2023-02-13T03:53:48;42.92;;;21.77;;
25213;SDS011;13160;51.834;4.706;2023-02-13T03:56:23;45.10;;;22.27;;
25213;SDS011;13160;51.834;4.706;2023-02-13T03:59:14;42.17;;;22.48;;
25213;SDS011;13160;51.834;4.706;2023-02-13T04:01:52;43.00;;;23.05;;
25213;SDS011;13160;51.834;4.706;2023-02-13T04:04:29;43.75;;;22.23;;
25213;SDS011;13160;51.834;4.706;2023-02-13T04:07:08;43.05;;;21.13;;
25213;SDS011;13160;51.834;4.706;2023-02-13T04:09:55;41.70;;;21.70;;
25213;SDS011;13160;51.834;4.706;2023-02-13T04:15:18;47.53;;;22.50;;
25213;SDS011;13160;51.834;4.706;2023-02-13T04:17:54;41.60;;;22.05;;
25213;SDS011;13160;51.834;4.706;2023-02-13T04:20:30;41.13;;;20.25;;
25213;SDS011;13160;51.834;4.706;2023-02-13T04:23:03;45.67;;;22.67;;
25213;SDS011;13160;51.834;4.706;2023-02-13T04:25:32;47.15;;;22.38;;
25213;SDS011;13160;51.834;4.706;2023-02-13T04:28:04;49.22;;;22.65;;
25213;SDS011;13160;51.834;4.706;2023-02-13T04:30:33;45.70;;;21.90;;
25213;SDS011;13160;51.834;4.706;2023-02-13T04:33:02;43.03;;;22.77;;
25213;SDS011;13160;51.834;4.706;2023-02-13T04:35:30;45.75;;;22.48;;
25213;SDS011;13160;51.834;4.706;2023-02-13T04:38:12;41.38;;;21.48;;
25213;SDS011;13160;51.834;4.706;2023-02-13T04:40:40;48.33;;;22.58;;
25213;SDS011;13160;51.834;4.706;2023-02-13T04:43:10;44.42;;;21.83;;
25213;SDS011;13160;51.834;4.706;2023-02-13T04:45:38;49.55;;;23.40;;
25213;SDS011;13160;51.834;4.706;2023-02-13T04:48:07;46.53;;;22.33;;
25213;SDS011;13160;51.834;4.706;2023-02-13T04:50:38;48.78;;;23.02;;
25213;SDS011;13160;51.834;4.706;2023-02-13T04:53:06;46.90;;;23.25;;
25213;SDS011;13160;51.834;4.706;2023-02-13T04:55:36;50.67;;;23.45;;
25213;SDS011;13160;51.834;4.706;2023-02-13T04:58:04;43.97;;;22.50;;
25213;SDS011;13160;51.834;4.706;2023-02-13T05:00:35;45.90;;;23.23;;
25213;SDS011;13160;51.834;4.706;2023-02-13T05:03:03;44.78;;;22.17;;
25213;SDS011;13160;51.834;4.706;2023-02-13T05:05:33;46.85;;;22.67;;
25213;SDS011;13160;51.834;4.706;2023-02-13T05:08:02;46.65;;;22.50;;
25213;SDS011;13160;51.834;4.706;2023-02-13T05:10:31;48.85;;;23.02;;
25213;SDS011;13160;51.834;4.706;2023-02-13T05:12:59;45.20;;;23.13;;
25213;SDS011;13160;51.834;4.706;2023-02-13T05:15:28;44.63;;;22.88;;
25213;SDS011;13160;51.834;4.706;2023-02-13T05:17:58;46.28;;;23.08;;
25213;SDS011;13160;51.834;4.706;2023-02-13T05:20:26;45.95;;;23.67;;
25213;SDS011;13160;51.834;4.706;2023-02-13T05:22:57;47.63;;;23.48;;
25213;SDS011;13160;51.834;4.706;2023-02-13T05:25:46;43.97;;;21.77;;
25213;SDS011;13160;51.834;4.706;2023-02-13T05:28:14;45.33;;;22.75;;
25213;SDS011;13160;51.834;4.706;2023-02-13T05:30:57;46.83;;;22.50;;
25213;SDS011;13160;51.834;4.706;2023-02-13T05:33:27;48.35;;;23.67;;
25213;SDS011;13160;51.834;4.706;2023-02-13T05:36:00;49.30;;;24.80;;
25213;SDS011;13160;51.834;4.706;2023-02-13T05:38:29;48.42;;;23.33;;
25213;SDS011;13160;51.834;4.706;2023-02-13T05:40:57;44.40;;;23.20;;
25213;SDS011;13160;51.834;4.706;2023-02-13T05:43:26;44.33;;;23.02;;
25213;SDS011;13160;51.834;4.706;2023-02-13T05:46:01;49.85;;;24.15;;
25213;SDS011;13160;51.834;4.706;2023-02-13T05:48:33;51.30;;;24.27;;
25213;SDS011;13160;51.834;4.706;2023-02-13T05:51:01;48.28;;;23.52;;
25213;SDS011;13160;51.834;4.706;2023-02-13T05:53:30;46.20;;;22.45;;
25213;SDS011;13160;51.834;4.706;2023-02-13T05:56:00;48.33;;;23.30;;
25213;SDS011;13160;51.834;4.706;2023-02-13T05:58:29;49.75;;;23.83;;
25213;SDS011;13160;51.834;4.706;2023-02-13T06:00:58;49.00;;;22.25;;
25213;SDS011;13160;51.834;4.706;2023-02-13T06:03:28;46.05;;;22.98;;
25213;SDS011;13160;51.834;4.706;2023-02-13T06:05:59;45.97;;;23.00;;
25213;SDS011;13160;51.834;4.706;2023-02-13T06:08:30;50.95;;;25.23;;
25213;SDS011;13160;51.834;4.706;2023-02-13T06:10:59;49.38;;;24.35;;
25213;SDS011;13160;51.834;4.706;2023-02-13T06:13:33;46.33;;;22.52;;
25213;SDS011;13160;51.834;4.706;2023-02-13T06:16:06;47.65;;;23.08;;
25213;SDS011;13160;51.834;4.706;2023-02-13T06:18:34;48.55;;;23.13;;
25213;SDS011;13160;51.834;4.706;2023-02-13T06:21:07;51.60;;;23.60;;
25213;SDS011;13160;51.834;4.706;2023-02-13T06:23:36;48.72;;;23.35;;
25213;SDS011;13160;51.834;4.706;2023-02-13T06:26:06;51.78;;;24.42;;
25213;SDS011;13160;51.834;4.706;2023-02-13T06:28:37;46.10;;;23.63;;
25213;SDS011;13160;51.834;4.706;2023-02-13T06:31:06;52.05;;;25.27;;
25213;SDS011;13160;51.834;4.706;2023-02-13T06:33:36;44.22;;;21.38;;
25213;SDS011;13160;51.834;4.706;2023-02-13T06:36:10;47.45;;;23.23;;
25213;SDS011;13160;51.834;4.706;2023-02-13T06:38:39;47.95;;;23.38;;
25213;SDS011;13160;51.834;4.706;2023-02-13T06:41:08;47.70;;;22.63;;
25213;SDS011;13160;51.834;4.706;2023-02-13T06:43:36;49.00;;;23.38;;
25213;SDS011;13160;51.834;4.706;2023-02-13T06:46:06;46.70;;;23.10;;
25213;SDS011;13160;51.834;4.706;2023-02-13T06:48:37;48.65;;;22.55;;
25213;SDS011;13160;51.834;4.706;2023-02-13T06:51:05;56.55;;;24.35;;
25213;SDS011;13160;51.834;4.706;2023-02-13T06:53:37;47.00;;;24.05;;
25213;SDS011;13160;51.834;4.706;2023-02-13T06:56:05;51.00;;;24.40;;
25213;SDS011;13160;51.834;4.706;2023-02-13T06:58:34;58.70;;;24.67;;
25213;SDS011;13160;51.834;4.706;2023-02-13T07:01:03;46.58;;;22.60;;
25213;SDS011;13160;51.834;4.706;2023-02-13T07:03:35;47.17;;;23.30;;
25213;SDS011;13160;51.834;4.706;2023-02-13T07:06:03;57.75;;;26.55;;
25213;SDS011;13160;51.834;4.706;2023-02-13T07:08:32;51.47;;;24.52;;
25213;SDS011;13160;51.834;4.706;2023-02-13T07:11:03;52.35;;;25.38;;
25213;SDS011;13160;51.834;4.706;2023-02-13T07:13:31;55.35;;;26.13;;
25213;SDS011;13160;51.834;4.706;2023-02-13T07:16:00;57.42;;;26.35;;
25213;SDS011;13160;51.834;4.706;2023-02-13T07:18:28;61.75;;;29.23;;
25213;SDS011;13160;51.834;4.706;2023-02-13T07:20:57;60.65;;;29.23;;
25213;SDS011;13160;51.834;4.706;2023-02-13T07:23:25;64.47;;;29.98;;
25213;SDS011;13160;51.834;4.706;2023-02-13T07:25:53;61.00;;;29.05;;
25213;SDS011;13160;51.834;4.706;2023-02-13T07:28:27;60.97;;;27.92;;
25213;SDS011;13160;51.834;4.706;2023-02-13T07:30:56;57.60;;;27.80;;
25213;SDS011;13160;51.834;4.706;2023-02-13T07:33:27;63.20;;;28.35;;
25213;SDS011;13160;51.834;4.706;2023-02-13T07:35:55;69.10;;;30.20;;
25213;SDS011;13160;51.834;4.706;2023-02-13T07:38:24;62.92;;;29.48;;
25213;SDS011;13160;51.834;4.706;2023-02-13T07:40:52;65.13;;;30.77;;
25213;SDS011;13160;51.834;4.706;2023-02-13T07:43:21;64.20;;;30.30;;
25213;SDS011;13160;51.834;4.706;2023-02-13T07:45:52;67.80;;;31.13;;
25213;SDS011;13160;51.834;4.706;2023-02-13T07:48:21;70.20;;;31.90;;
25213;SDS011;13160;51.834;4.706;2023-02-13T07:50:52;70.70;;;32.70;;
25213;SDS011;13160;51.834;4.706;2023-02-13T07:53:22;66.82;;;30.83;;
25213;SDS011;13160;51.834;4.706;2023-02-13T07:55:50;74.70;;;32.15;;
25213;SDS011;13160;51.834;4.706;2023-02-13T07:58:22;72.47;;;28.88;;
25213;SDS011;13160;51.834;4.706;2023-02-13T08:00:52;67.90;;;31.20;;
25213;SDS011;13160;51.834;4.706;2023-02-13T08:03:23;70.43;;;32.10;;
25213;SDS011;13160;51.834;4.706;2023-02-13T08:05:52;69.82;;;32.35;;
25213;SDS011;13160;51.834;4.706;2023-02-13T08:08:23;79.07;;;34.00;;
25213;SDS011;13160;51.834;4.706;2023-02-13T08:10:52;75.18;;;33.30;;
25213;SDS011;13160;51.834;4.706;2023-02-13T08:13:39;72.22;;;32.95;;
25213;SDS011;13160;51.834;4.706;2023-02-13T08:16:10;79.10;;;32.55;;
25213;SDS011;13160;51.834;4.706;2023-02-13T08:18:38;68.60;;;31.55;;
25213;SDS011;13160;51.834;4.706;2023-02-13T08:21:06;70.88;;;31.55;;
25213;SDS011;13160;51.834;4.706;2023-02-13T08:23:36;82.68;;;34.33;;
25213;SDS011;13160;51.834;4.706;2023-02-13T08:26:05;83.07;;;35.67;;
25213;SDS011;13160;51.834;4.706;2023-02-13T08:28:33;82.25;;;35.45;;
25213;SDS011;13160;51.834;4.706;2023-02-13T08:31:09;83.05;;;36.17;;
25213;SDS011;13160;51.834;4.706;2023-02-13T08:33:41;74.22;;;34.03;;
25213;SDS011;13160;51.834;4.706;2023-02-13T08:36:11;78.25;;;35.33;;
25213;SDS011;13160;51.834;4.706;2023-02-13T08:38:39;79.93;;;35.20;;
25213;SDS011;13160;51.834;4.706;2023-02-13T08:41:07;84.68;;;36.40;;
25213;SDS011;13160;51.834;4.706;2023-02-13T08:43:36;84.57;;;37.08;;
25213;SDS011;13160;51.834;4.706;2023-02-13T08:46:04;78.60;;;34.17;;
25213;SDS011;13160;51.834;4.706;2023-02-13T08:48:34;87.75;;;37.55;;
25213;SDS011;13160;51.834;4.706;2023-02-13T08:51:04;88.43;;;37.03;;
25213;SDS011;13160;51.834;4.706;2023-02-13T08:53:34;91.45;;;40.88;;
25213;SDS011;13160;51.834;4.706;2023-02-13T08:56:04;83.13;;;37.65;;
25213;SDS011;13160;51.834;4.706;2023-02-13T08:58:33;86.55;;;38.10;;
25213;SDS011;13160;51.834;4.706;2023-02-13T09:01:03;80.57;;;36.95;;
25213;SDS011;13160;51.834;4.706;2023-02-13T09:03:34;91.40;;;39.72;;
25213;SDS011;13160;51.834;4.706;2023-02-13T09:06:03;87.10;;;38.83;;
25213;SDS011;13160;51.834;4.706;2023-02-13T09:08:33;92.45;;;40.05;;
25213;SDS011;13160;51.834;4.706;2023-02-13T09:11:02;96.75;;;41.58;;
25213;SDS011;13160;51.834;4.706;2023-02-13T09:13:36;89.85;;;40.05;;
25213;SDS011;13160;51.834;4.706;2023-02-13T09:16:06;99.85;;;43.47;;
25213;SDS011;13160;51.834;4.706;2023-02-13T09:18:40;106.15;;;42.58;;
25213;SDS011;13160;51.834;4.706;2023-02-13T09:21:10;90.78;;;41.88;;
25213;SDS011;13160;51.834;4.706;2023-02-13T09:23:39;95.88;;;42.40;;
25213;SDS011;13160;51.834;4.706;2023-02-13T09:26:10;88.40;;;40.38;;
25213;SDS011;13160;51.834;4.706;2023-02-13T09:28:41;89.82;;;42.08;;
25213;SDS011;13160;51.834;4.706;2023-02-13T09:31:13;87.00;;;40.38;;
25213;SDS011;13160;51.834;4.706;2023-02-13T09:33:46;92.53;;;42.58;;
25213;SDS011;13160;51.834;4.706;2023-02-13T09:36:16;90.30;;;42.53;;
25213;SDS011;13160;51.834;4.706;2023-02-13T09:38:47;93.40;;;42.35;;
25213;SDS011;13160;51.834;4.706;2023-02-13T09:41:21;85.38;;;40.70;;
25213;SDS011;13160;51.834;4.706;2023-02-13T09:43:53;79.20;;;39.97;;
25213;SDS011;13160;51.834;4.706;2023-02-13T09:46:27;83.82;;;40.88;;
25213;SDS011;13160;51.834;4.706;2023-02-13T09:49:02;88.72;;;40.03;;
25213;SDS011;13160;51.834;4.706;2023-02-13T09:51:35;80.65;;;39.88;;
25213;SDS011;13160;51.834;4.706;2023-02-13T09:54:04;82.75;;;41.38;;
25213;SDS011;13160;51.834;4.706;2023-02-13T09:56:38;78.97;;;39.90;;
25213;SDS011;13160;51.834;4.706;2023-02-13T09:59:20;74.63;;;37.90;;
25213;SDS011;13160;51.834;4.706;2023-02-13T10:02:09;84.20;;;39.65;;
25213;SDS011;13160;51.834;4.706;2023-02-13T10:04:55;79.22;;;38.70;;
25213;SDS011;13160;51.834;4.706;2023-02-13T10:07:35;79.55;;;39.40;;
25213;SDS011;13160;51.834;4.706;2023-02-13T10:10:11;76.20;;;37.58;;
25213;SDS011;13160;51.834;4.706;2023-02-13T10:12:55;69.03;;;36.58;;
25213;SDS011;13160;51.834;4.706;2023-02-13T10:15:35;72.53;;;37.55;;
25213;SDS011;13160;51.834;4.706;2023-02-13T10:18:13;66.38;;;35.05;;
25213;SDS011;13160;51.834;4.706;2023-02-13T10:20:47;65.47;;;33.72;;
25213;SDS011;13160;51.834;4.706;2023-02-13T10:23:23;65.30;;;33.25;;
25213;SDS011;13160;51.834;4.706;2023-02-13T10:25:57;66.28;;;33.40;;
25213;SDS011;13160;51.834;4.706;2023-02-13T10:28:32;66.07;;;34.42;;
25213;SDS011;13160;51.834;4.706;2023-02-13T10:31:07;62.72;;;35.35;;
25213;SDS011;13160;51.834;4.706;2023-02-13T10:33:41;68.40;;;34.75;;
25213;SDS011;13160;51.834;4.706;2023-02-13T10:36:17;57.83;;;31.73;;
25213;SDS011;13160;51.834;4.706;2023-02-13T10:38:51;60.95;;;33.63;;
25213;SDS011;13160;51.834;4.706;2023-02-13T10:41:29;62.42;;;33.60;;
25213;SDS011;13160;51.834;4.706;2023-02-13T10:47:07;56.60;;;31.80;;
25213;SDS011;13160;51.834;4.706;2023-02-13T10:49:56;54.92;;;31.35;;
25213;SDS011;13160;51.834;4.706;2023-02-13T10:52:46;55.80;;;30.08;;
25213;SDS011;13160;51.834;4.706;2023-02-13T10:58:42;52.13;;;30.30;;
25213;SDS011;13160;51.834;4.706;2023-02-13T11:01:31;52.40;;;27.75;;
25213;SDS011;13160;51.834;4.706;2023-02-13T11:04:06;52.08;;;28.20;;
25213;SDS011;13160;51.834;4.706;2023-02-13T11:06:40;45.83;;;25.77;;
25213;SDS011;13160;51.834;4.706;2023-02-13T11:09:11;43.25;;;24.98;;
25213;SDS011;13160;51.834;4.706;2023-02-13T11:11:40;39.72;;;23.58;;
25213;SDS011;13160;51.834;4.706;2023-02-13T11:14:10;44.78;;;25.20;;
25213;SDS011;13160;51.834;4.706;2023-02-13T11:16:42;37.88;;;23.30;;
25213;SDS011;13160;51.834;4.706;2023-02-13T11:19:23;41.33;;;23.80;;
25213;SDS011;13160;51.834;4.706;2023-02-13T11:21:58;42.03;;;24.33;;
25213;SDS011;13160;51.834;4.706;2023-02-13T11:24:33;37.70;;;22.02;;
25213;SDS011;13160;51.834;4.706;2023-02-13T11:27:04;40.40;;;24.38;;
25213;SDS011;13160;51.834;4.706;2023-02-13T11:29:50;39.53;;;22.88;;
25213;SDS011;13160;51.834;4.706;2023-02-13T11:32:30;39.22;;;23.17;;
25213;SDS011;13160;51.834;4.706;2023-02-13T11:35:15;38.60;;;22.95;;
25213;SDS011;13160;51.834;4.706;2023-02-13T11:38:19;37.67;;;21.88;;
25213;SDS011;13160;51.834;4.706;2023-02-13T11:40:52;37.50;;;22.88;;
25213;SDS011;13160;51.834;4.706;2023-02-13T11:43:34;37.80;;;22.42;;
25213;SDS011;13160;51.834;4.706;2023-02-13T11:46:13;42.65;;;22.80;;
25213;SDS011;13160;51.834;4.706;2023-02-13T11:48:55;35.85;;;21.25;;
25213;SDS011;13160;51.834;4.706;2023-02-13T11:51:35;33.30;;;19.92;;
25213;SDS011;13160;51.834;4.706;2023-02-13T11:54:06;34.85;;;20.52;;
25213;SDS011;13160;51.834;4.706;2023-02-13T11:56:57;32.92;;;19.90;;
25213;SDS011;13160;51.834;4.706;2023-02-13T11:59:32;34.50;;;19.10;;
25213;SDS011;13160;51.834;4.706;2023-02-13T12:02:14;33.83;;;20.92;;
25213;SDS011;13160;51.834;4.706;2023-02-13T12:04:47;32.35;;;20.13;;
25213;SDS011;13160;51.834;4.706;2023-02-13T12:07:44;33.85;;;20.08;;
25213;SDS011;13160;51.834;4.706;2023-02-13T12:10:18;35.35;;;20.00;;
25213;SDS011;13160;51.834;4.706;2023-02-13T12:19:14;28.77;;;17.80;;
25213;SDS011;13160;51.834;4.706;2023-02-13T12:21:54;28.63;;;17.58;;
25213;SDS011;13160;51.834;4.706;2023-02-13T12:24:58;27.05;;;17.38;;
25213;SDS011;13160;51.834;4.706;2023-02-13T12:28:19;30.67;;;18.65;;
25213;SDS011;13160;51.834;4.706;2023-02-13T12:31:57;29.77;;;18.63;;
25213;SDS011;13160;51.834;4.706;2023-02-13T12:39:26;31.90;;;18.15;;
25213;SDS011;13160;51.834;4.706;2023-02-13T12:42:33;28.25;;;18.50;;
25213;SDS011;13160;51.834;4.706;2023-02-13T12:48:03;31.17;;;18.17;;
25213;SDS011;13160;51.834;4.706;2023-02-13T12:50:55;29.05;;;17.95;;
25213;SDS011;13160;51.834;4.706;2023-02-13T12:53:38;30.38;;;19.05;;
25213;SDS011;13160;51.834;4.706;2023-02-13T12:56:33;28.73;;;19.15;;
25213;SDS011;13160;51.834;4.706;2023-02-13T12:59:17;31.02;;;19.85;;
25213;SDS011;13160;51.834;4.706;2023-02-13T13:05:13;31.33;;;19.27;;
25213;SDS011;13160;51.834;4.706;2023-02-13T13:07:56;30.88;;;20.65;;
25213;SDS011;13160;51.834;4.706;2023-02-13T13:10:53;31.00;;;20.25;;
25213;SDS011;13160;51.834;4.706;2023-02-13T13:13:42;29.48;;;20.00;;
25213;SDS011;13160;51.834;4.706;2023-02-13T13:16:25;31.67;;;19.15;;
25213;SDS011;13160;51.834;4.706;2023-02-13T13:19:03;29.42;;;19.40;;
25213;SDS011;13160;51.834;4.706;2023-02-13T13:21:44;31.27;;;20.20;;
25213;SDS011;13160;51.834;4.706;2023-02-13T13:24:27;28.00;;;16.95;;
25213;SDS011;13160;51.834;4.706;2023-02-13T13:27:10;30.42;;;18.27;;
25213;SDS011;13160;51.834;4.706;2023-02-13T13:29:49;32.63;;;19.13;;
25213;SDS011;13160;51.834;4.706;2023-02-13T13:32:22;27.20;;;18.27;;
25213;SDS011;13160;51.834;4.706;2023-02-13T13:34:53;29.48;;;19.67;;
25213;SDS011;13160;51.834;4.706;2023-02-13T13:37:27;29.70;;;19.23;;
25213;SDS011;13160;51.834;4.706;2023-02-13T13:40:03;30.20;;;19.70;;
25213;SDS011;13160;51.834;4.706;2023-02-13T13:43:01;27.73;;;18.00;;
25213;SDS011;13160;51.834;4.706;2023-02-13T13:45:47;30.40;;;19.95;;
25213;SDS011;13160;51.834;4.706;2023-02-13T13:48:38;31.95;;;18.83;;
25213;SDS011;13160;51.834;4.706;2023-02-13T13:51:20;27.98;;;18.08;;
25213;SDS011;13160;51.834;4.706;2023-02-13T14:05:21;28.55;;;17.95;;
25213;SDS011;13160;51.834;4.706;2023-02-13T14:07:55;31.10;;;19.17;;
25213;SDS011;13160;51.834;4.706;2023-02-13T14:13:30;30.65;;;19.17;;
25213;SDS011;13160;51.834;4.706;2023-02-13T14:16:02;26.55;;;18.67;;
25213;SDS011;13160;51.834;4.706;2023-02-13T14:18:39;26.67;;;18.05;;
25213;SDS011;13160;51.834;4.706;2023-02-13T14:21:19;31.23;;;19.15;;
25213;SDS011;13160;51.834;4.706;2023-02-13T14:23:51;28.42;;;19.50;;
25213;SDS011;13160;51.834;4.706;2023-02-13T14:26:35;27.45;;;18.85;;
25213;SDS011;13160;51.834;4.706;2023-02-13T14:32:18;28.75;;;18.58;;
25213;SDS011;13160;51.834;4.706;2023-02-13T14:35:00;30.98;;;18.77;;
25213;SDS011;13160;51.834;4.706;2023-02-13T14:37:34;28.88;;;18.30;;
25213;SDS011;13160;51.834;4.706;2023-02-13T14:43:00;26.83;;;17.52;;
25213;SDS011;13160;51.834;4.706;2023-02-13T14:45:50;27.38;;;17.60;;
25213;SDS011;13160;51.834;4.706;2023-02-13T14:48:32;22.38;;;16.02;;
25213;SDS011;13160;51.834;4.706;2023-02-13T14:51:16;23.25;;;15.90;;
25213;SDS011;13160;51.834;4.706;2023-02-13T14:53:58;26.85;;;16.17;;
25213;SDS011;13160;51.834;4.706;2023-02-13T14:56:36;25.80;;;16.33;;
25213;SDS011;13160;51.834;4.706;2023-02-13T14:59:13;26.63;;;16.33;;
25213;SDS011;13160;51.834;4.706;2023-02-13T15:01:46;20.10;;;13.93;;
25213;SDS011;13160;51.834;4.706;2023-02-13T15:04:20;21.63;;;15.43;;
25213;SDS011;13160;51.834;4.706;2023-02-13T15:06:58;21.23;;;14.23;;
25213;SDS011;13160;51.834;4.706;2023-02-13T15:09:44;22.45;;;14.82;;
25213;SDS011;13160;51.834;4.706;2023-02-13T15:12:26;25.08;;;15.73;;
25213;SDS011;13160;51.834;4.706;2023-02-13T15:15:00;22.73;;;15.27;;
25213;SDS011;13160;51.834;4.706;2023-02-13T15:17:45;23.80;;;14.32;;
25213;SDS011;13160;51.834;4.706;2023-02-13T15:20:18;24.35;;;15.18;;
25213;SDS011;13160;51.834;4.706;2023-02-13T15:22:53;20.75;;;13.68;;
25213;SDS011;13160;51.834;4.706;2023-02-13T15:25:28;21.98;;;14.52;;
25213;SDS011;13160;51.834;4.706;2023-02-13T15:28:02;23.88;;;15.18;;
25213;SDS011;13160;51.834;4.706;2023-02-13T15:30:51;23.55;;;15.13;;
25213;SDS011;13160;51.834;4.706;2023-02-13T15:33:23;24.92;;;15.02;;
25213;SDS011;13160;51.834;4.706;2023-02-13T15:35:59;22.60;;;14.88;;
25213;SDS011;13160;51.834;4.706;2023-02-13T15:38:34;19.58;;;13.90;;
25213;SDS011;13160;51.834;4.706;2023-02-13T15:41:09;23.02;;;15.13;;
25213;SDS011;13160;51.834;4.706;2023-02-13T15:43:43;20.25;;;14.50;;
25213;SDS011;13160;51.834;4.706;2023-02-13T15:46:18;22.98;;;16.27;;
25213;SDS011;13160;51.834;4.706;2023-02-13T15:48:48;24.17;;;15.35;;
25213;SDS011;13160;51.834;4.706;2023-02-13T15:51:24;21.95;;;15.38;;
25213;SDS011;13160;51.834;4.706;2023-02-13T15:54:03;21.98;;;15.25;;
25213;SDS011;13160;51.834;4.706;2023-02-13T15:56:33;23.85;;;15.93;;
25213;SDS011;13160;51.834;4.706;2023-02-13T15:59:02;22.90;;;15.95;;
25213;SDS011;13160;51.834;4.706;2023-02-13T16:02:04;21.27;;;15.57;;
25213;SDS011;13160;51.834;4.706;2023-02-13T16:04:39;24.20;;;16.08;;
25213;SDS011;13160;51.834;4.706;2023-02-13T16:07:12;24.75;;;16.17;;